Egg Harbor, Wisconsin
Current Conditions -  °F | °C
As of 7:35 AM on Sunday 23 Nov 2014 (Local Time) from KSUE Reporting Station
Overcast Overcast  
Wind Chill: 38°   Ceiling: 200
Heat Index: 45°   Visibility: 1.2mi
Dew Point: 43°   Wind: 13mph
Humidity: 93%   Direction: 170°S
Pressure: 29.66"   Gusts: NA
Location:  45.05°N, 87.3°W
Report Text: KSUE 231335Z AUTO 17011KT 1 1/4SM OVC002 07/06 A2966 RMK AO1
Loading
Personal Weather Stations






























Interactive Weather Map New forecast layout! Learn more

10-Day Weather Forecast

Advertisements
Track Severe Weather on mobile